createdAt,value
2022-09-15T00:01:10.186Z,16.71
2022-09-15T00:03:43.774Z,16.68
2022-09-15T00:06:11.468Z,16.68
2022-09-15T00:08:39.027Z,16.68
2022-09-15T00:11:18.074Z,16.69
2022-09-15T00:13:45.818Z,16.68
2022-09-15T00:16:15.199Z,16.68
2022-09-15T00:18:44.310Z,16.68
2022-09-15T00:21:23.362Z,16.68
2022-09-15T00:23:50.734Z,16.62
2022-09-15T00:26:20.428Z,16.57
2022-09-15T00:28:48.579Z,16.57
2022-09-15T00:31:19.500Z,16.61
2022-09-15T00:33:51.634Z,16.67
2022-09-15T00:36:20.105Z,16.68
2022-09-15T00:38:47.749Z,16.65
2022-09-15T00:41:17.662Z,16.63
2022-09-15T00:43:53.796Z,16.60
2022-09-15T00:46:45.201Z,16.60
2022-09-15T00:49:25.068Z,16.59
2022-09-15T00:51:58.283Z,16.59
2022-09-15T00:54:36.893Z,16.58
2022-09-15T00:57:16.013Z,16.53
2022-09-15T00:59:44.612Z,16.44
2022-09-15T01:02:22.609Z,16.31
2022-09-15T01:04:56.010Z,16.24
2022-09-15T01:07:43.350Z,16.22
2022-09-15T01:10:32.217Z,16.18
2022-09-15T01:13:02.978Z,16.15
2022-09-15T01:15:37.854Z,16.15
2022-09-15T01:18:05.205Z,16.18
2022-09-15T01:21:02.309Z,16.18
2022-09-15T01:23:48.572Z,16.20
2022-09-15T01:26:34.243Z,16.24
2022-09-15T01:29:25.540Z,16.31
2022-09-15T01:32:16.548Z,16.38
2022-09-15T01:35:03.799Z,16.44
2022-09-15T01:37:37.298Z,16.43
2022-09-15T01:40:06.734Z,16.43
2022-09-15T01:42:35.392Z,16.40
2022-09-15T01:45:09.431Z,16.39
2022-09-15T01:47:37.290Z,16.40
2022-09-15T01:50:15.525Z,16.37
2022-09-15T01:52:47.067Z,16.36
2022-09-15T01:55:22.997Z,16.30
2022-09-15T01:57:50.731Z,16.26
2022-09-15T02:00:17.943Z,16.28
2022-09-15T02:02:56.038Z,16.26
2022-09-15T02:05:32.569Z,16.24
2022-09-15T02:08:25.290Z,16.21
2022-09-15T02:11:00.870Z,16.22
2022-09-15T02:14:10.621Z,16.19
2022-09-15T02:16:41.218Z,16.12
2022-09-15T02:19:11.372Z,16.08
2022-09-15T02:21:55.321Z,16.07
2022-09-15T02:24:29.099Z,16.07
2022-09-15T02:26:57.899Z,16.20
2022-09-15T02:29:27.428Z,16.26
2022-09-15T02:32:03.756Z,16.27
2022-09-15T02:34:37.707Z,16.26
2022-09-15T02:37:05.622Z,16.20
2022-09-15T02:39:38.858Z,16.16
2022-09-15T02:42:06.774Z,16.14
2022-09-15T02:44:34.365Z,16.11
2022-09-15T02:47:02.089Z,16.12
2022-09-15T02:49:29.591Z,16.11
2022-09-15T02:51:56.531Z,16.11
2022-09-15T02:54:23.475Z,16.05
2022-09-15T02:56:50.694Z,15.98
2022-09-15T02:59:17.641Z,15.91
2022-09-15T03:01:45.110Z,15.87
2022-09-15T03:04:12.784Z,15.77
2022-09-15T03:06:39.896Z,15.74
2022-09-15T03:09:08.568Z,15.70
2022-09-15T03:11:36.782Z,15.65
2022-09-15T03:14:06.568Z,15.63
2022-09-15T03:16:35.201Z,15.57
2022-09-15T03:19:03.385Z,15.49
2022-09-15T03:21:30.717Z,15.44
2022-09-15T03:23:59.089Z,15.39
2022-09-15T03:26:26.893Z,15.36
2022-09-15T03:28:53.862Z,15.33
2022-09-15T03:31:26.742Z,15.32
2022-09-15T03:33:56.154Z,15.30
2022-09-15T03:36:23.208Z,15.29
2022-09-15T03:38:50.275Z,15.28
2022-09-15T03:41:17.535Z,15.26
2022-09-15T03:43:44.577Z,15.28
2022-09-15T03:46:12.097Z,15.30
2022-09-15T03:48:40.718Z,15.31
2022-09-15T03:51:09.226Z,15.31
2022-09-15T03:53:39.193Z,15.31
2022-09-15T03:56:18.833Z,15.30
2022-09-15T03:58:45.750Z,15.31
2022-09-15T04:01:13.718Z,15.33
2022-09-15T04:03:51.080Z,15.36
2022-09-15T04:06:21.048Z,15.34
2022-09-15T04:08:49.438Z,15.29
2022-09-15T04:11:21.140Z,15.29
2022-09-15T04:13:49.023Z,15.26
2022-09-15T04:16:25.381Z,15.25
2022-09-15T04:18:54.236Z,15.24
2022-09-15T04:21:25.785Z,15.26
2022-09-15T04:23:54.954Z,15.29
2022-09-15T04:26:33.155Z,15.39
2022-09-15T04:29:04.525Z,15.46
2022-09-15T04:31:33.972Z,15.53
2022-09-15T04:34:01.204Z,15.60
2022-09-15T04:36:29.426Z,15.72
2022-09-15T04:38:58.859Z,15.84
2022-09-15T04:41:28.132Z,15.92
2022-09-15T04:43:55.783Z,15.99
2022-09-15T04:46:25.162Z,16.04
2022-09-15T04:48:52.430Z,16.06
2022-09-15T04:51:23.060Z,16.07
2022-09-15T04:54:17.739Z,16.12
2022-09-15T04:56:47.411Z,16.21
2022-09-15T04:59:19.361Z,16.28
2022-09-15T05:01:46.573Z,16.36
2022-09-15T05:04:13.744Z,16.43
2022-09-15T05:06:42.399Z,16.51
2022-09-15T05:09:13.312Z,16.62
2022-09-15T05:11:40.871Z,16.69
2022-09-15T05:14:09.764Z,16.76
2022-09-15T05:16:36.983Z,16.82
2022-09-15T05:19:14.928Z,16.84
2022-09-15T05:21:42.467Z,16.86
2022-09-15T05:24:12.762Z,16.86
2022-09-15T05:26:44.125Z,16.85
2022-09-15T05:29:13.024Z,16.89
2022-09-15T05:31:39.916Z,16.93
2022-09-15T05:34:07.304Z,16.97
2022-09-15T05:36:34.684Z,17.02
2022-09-15T05:39:01.973Z,17.12
2022-09-15T05:41:29.983Z,17.20
2022-09-15T05:44:00.240Z,17.28
2022-09-15T05:46:33.614Z,17.38
2022-09-15T05:49:09.606Z,17.51
2022-09-15T05:51:42.160Z,17.66
2022-09-15T05:54:09.684Z,17.86
2022-09-15T05:56:36.677Z,18.00
2022-09-15T05:59:04.052Z,18.10
2022-09-15T06:01:32.244Z,18.19
2022-09-15T06:03:59.591Z,18.25
2022-09-15T06:06:27.116Z,18.34
2022-09-15T06:08:58.431Z,18.44
2022-09-15T06:11:29.390Z,18.52
2022-09-15T06:14:02.902Z,18.63
2022-09-15T06:16:33.954Z,18.73
2022-09-15T06:19:02.472Z,18.86
2022-09-15T06:21:31.543Z,18.96
2022-09-15T06:24:01.396Z,19.12
2022-09-15T06:26:28.822Z,19.25
2022-09-15T06:28:59.351Z,19.34
2022-09-15T06:34:12.017Z,19.47
2022-09-15T06:36:39.421Z,19.49
2022-09-15T06:39:07.258Z,19.50
2022-09-15T06:42:00.681Z,19.48
2022-09-15T06:44:22.888Z,19.45
2022-09-15T06:46:50.613Z,19.46
2022-09-15T06:49:18.366Z,19.46
2022-09-15T06:51:45.413Z,19.50
2022-09-15T06:54:12.733Z,19.58
2022-09-15T06:56:39.696Z,19.68
2022-09-15T06:59:06.839Z,19.79
2022-09-15T07:01:38.989Z,19.92
2022-09-15T07:04:11.219Z,20.10
2022-09-15T07:06:39.756Z,20.28
2022-09-15T07:09:12.499Z,20.44
2022-09-15T07:11:41.232Z,20.56
2022-09-15T07:14:10.638Z,20.58
2022-09-15T07:16:37.638Z,20.63
2022-09-15T07:19:06.274Z,20.75
2022-09-15T07:21:37.431Z,20.95
2022-09-15T07:24:07.273Z,21.25
2022-09-15T07:26:35.069Z,21.51
2022-09-15T07:32:04.627Z,22.01
2022-09-15T07:34:32.439Z,22.17
2022-09-15T07:37:00.682Z,22.17
2022-09-15T07:39:29.456Z,22.15
2022-09-15T07:42:01.956Z,22.31
2022-09-15T07:44:30.132Z,22.43
2022-09-15T07:46:57.396Z,22.49
2022-09-15T07:49:25.505Z,22.56
2022-09-15T07:51:52.510Z,22.75
2022-09-15T07:57:00.627Z,23.08
2022-09-15T08:02:19.184Z,23.17
2022-09-15T08:04:47.066Z,23.16
2022-09-15T08:07:14.401Z,23.11
2022-09-15T08:09:41.483Z,23.06
2022-09-15T08:12:09.290Z,23.04
2022-09-15T08:14:36.539Z,23.00
2022-09-15T08:17:09.394Z,23.05
2022-09-15T08:19:38.653Z,23.00
2022-09-15T08:22:05.782Z,23.00
2022-09-15T08:24:33.200Z,23.03
2022-09-15T08:27:00.649Z,23.04
2022-09-15T08:29:27.684Z,23.06
2022-09-15T08:31:54.938Z,23.11
2022-09-15T08:34:22.171Z,23.12
2022-09-15T08:36:49.163Z,23.08
2022-09-15T08:39:16.230Z,23.06
2022-09-15T08:41:46.812Z,23.02
2022-09-15T08:44:55.701Z,22.96
2022-09-15T08:47:31.349Z,22.87
2022-09-15T08:50:23.913Z,22.84
2022-09-15T08:52:58.054Z,22.83
2022-09-15T08:55:43.885Z,22.86
2022-09-15T08:58:16.762Z,22.80
2022-09-15T09:00:47.734Z,22.82
2022-09-15T09:03:37.266Z,22.84
2022-09-15T09:06:48.705Z,22.84
2022-09-15T09:09:26.439Z,22.85
2022-09-15T09:12:19.532Z,22.89
2022-09-15T09:14:46.985Z,22.92
2022-09-15T09:17:28.897Z,22.94
2022-09-15T09:20:25.499Z,22.95
2022-09-15T09:22:55.134Z,22.94
2022-09-15T09:31:21.461Z,22.79
2022-09-15T09:34:16.177Z,22.79
2022-09-15T09:36:55.226Z,22.79
2022-09-15T09:39:28.803Z,22.76
2022-09-15T09:41:59.275Z,22.71
2022-09-15T09:44:32.111Z,22.65
2022-09-15T09:47:01.955Z,22.65
2022-09-15T09:49:48.804Z,22.68
2022-09-15T09:52:34.401Z,22.72
2022-09-15T09:55:29.728Z,22.72
2022-09-15T09:58:33.741Z,22.73
2022-09-15T10:01:16.914Z,22.75
2022-09-15T10:03:48.876Z,22.74
2022-09-15T10:06:18.977Z,22.72
2022-09-15T10:09:04.074Z,22.73
2022-09-15T10:12:01.948Z,22.71
2022-09-15T10:14:33.380Z,22.75
2022-09-15T10:17:16.868Z,22.78
2022-09-15T10:19:50.134Z,22.81
2022-09-15T10:22:41.188Z,22.83
2022-09-15T10:28:25.951Z,22.99
2022-09-15T10:31:01.767Z,23.35
2022-09-15T10:33:45.021Z,23.61
2022-09-15T10:36:23.373Z,23.74
2022-09-15T10:39:07.500Z,23.79
2022-09-15T10:44:48.415Z,23.82
2022-09-15T10:47:43.913Z,24.04
2022-09-15T10:50:26.318Z,24.20
2022-09-15T10:53:18.121Z,24.28
2022-09-15T10:56:35.085Z,24.52
2022-09-15T10:59:19.069Z,25.00
2022-09-15T11:02:04.699Z,25.52
2022-09-15T11:04:56.886Z,25.79
2022-09-15T11:07:39.309Z,26.04
2022-09-15T11:10:15.864Z,26.26
2022-09-15T11:13:05.442Z,26.42
2022-09-15T11:16:05.245Z,26.57
2022-09-15T11:18:58.157Z,26.59
2022-09-15T11:21:41.036Z,26.65
2022-09-15T11:24:45.213Z,26.72
2022-09-15T11:27:35.331Z,26.77
2022-09-15T11:30:16.555Z,26.74
2022-09-15T11:32:46.397Z,26.65
2022-09-15T11:35:32.290Z,26.65
2022-09-15T11:38:28.400Z,26.69
2022-09-15T11:41:17.245Z,26.81
2022-09-15T11:43:59.098Z,26.82
2022-09-15T11:46:51.976Z,26.76
2022-09-15T11:49:23.535Z,26.69
2022-09-15T11:51:56.541Z,26.76
2022-09-15T11:54:41.923Z,26.91
2022-09-15T11:57:21.371Z,27.02
2022-09-15T12:00:05.443Z,27.06
2022-09-15T12:03:02.683Z,27.12
2022-09-15T12:05:57.838Z,27.24
2022-09-15T12:08:32.672Z,27.44
2022-09-15T12:11:02.969Z,27.44
2022-09-15T12:16:20.969Z,27.47
2022-09-15T12:19:14.696Z,27.45
2022-09-15T12:22:05.337Z,27.34
2022-09-15T12:24:45.957Z,27.26
2022-09-15T12:27:19.757Z,27.22
2022-09-15T12:29:54.793Z,27.17
2022-09-15T12:32:28.197Z,27.14
2022-09-15T12:35:26.411Z,27.05
2022-09-15T12:40:46.835Z,26.97
2022-09-15T12:43:13.809Z,26.95
2022-09-15T12:45:43.021Z,26.99
2022-09-15T12:48:21.944Z,27.03
2022-09-15T12:50:55.977Z,27.01
2022-09-15T12:53:26.759Z,27.01
2022-09-15T12:55:57.721Z,26.97
2022-09-15T12:58:34.796Z,26.91
2022-09-15T13:01:25.669Z,26.97
2022-09-15T13:03:57.949Z,27.07
2022-09-15T13:06:28.988Z,27.25
2022-09-15T13:09:02.230Z,27.39
2022-09-15T13:11:38.240Z,27.39
2022-09-15T13:14:10.677Z,27.34
2022-09-15T13:16:42.883Z,27.27
2022-09-15T13:19:46.850Z,27.18
2022-09-15T13:22:30.318Z,27.08
2022-09-15T13:28:16.798Z,27.07
2022-09-15T13:31:20.046Z,26.98
2022-09-15T13:41:06.793Z,26.74
2022-09-15T13:44:14.962Z,26.68
2022-09-15T13:47:13.479Z,26.65
2022-09-15T13:50:01.107Z,26.60
2022-09-15T13:52:46.634Z,26.52
2022-09-15T13:55:24.304Z,26.49
2022-09-15T14:00:45.765Z,26.39
2022-09-15T14:03:36.994Z,26.36
2022-09-15T14:06:39.350Z,26.33
2022-09-15T14:09:19.744Z,26.29
2022-09-15T14:11:53.399Z,26.27
2022-09-15T14:14:38.916Z,26.21
2022-09-15T14:17:20.176Z,26.18
2022-09-15T14:19:58.881Z,26.12
2022-09-15T14:22:30.278Z,26.10
2022-09-15T14:25:01.377Z,26.10
2022-09-15T14:27:33.940Z,26.12
2022-09-15T14:30:25.656Z,26.10
2022-09-15T14:33:04.630Z,26.07
2022-09-15T14:35:39.322Z,26.03
2022-09-15T14:38:22.682Z,26.02
2022-09-15T14:40:56.963Z,26.05
2022-09-15T14:43:25.933Z,26.01
2022-09-15T14:45:57.970Z,25.94
2022-09-15T14:48:30.194Z,25.89
2022-09-15T14:51:34.053Z,25.87
2022-09-15T14:54:03.581Z,25.90
2022-09-15T14:56:37.866Z,25.95
2022-09-15T14:59:08.989Z,26.02
2022-09-15T15:01:40.674Z,26.04
2022-09-15T15:04:26.092Z,26.06
2022-09-15T15:10:22.945Z,26.03
2022-09-15T15:12:56.387Z,25.92
2022-09-15T15:15:27.267Z,25.84
2022-09-15T15:18:36.278Z,25.70
2022-09-15T15:21:04.238Z,25.57
2022-09-15T15:23:35.146Z,25.48
2022-09-15T15:26:34.033Z,25.37
2022-09-15T15:29:01.644Z,25.27
2022-09-15T15:31:33.792Z,25.17
2022-09-15T15:34:07.832Z,25.12
2022-09-15T15:36:36.684Z,25.10
2022-09-15T15:39:06.914Z,25.04
2022-09-15T15:41:39.900Z,25.00
2022-09-15T15:44:19.204Z,24.94
2022-09-15T15:47:22.944Z,24.87
2022-09-15T15:50:15.868Z,24.80
2022-09-15T15:52:44.064Z,24.72
2022-09-15T15:55:22.790Z,24.62
2022-09-15T15:57:55.136Z,24.54
2022-09-15T16:00:44.311Z,24.46
2022-09-15T16:03:13.192Z,24.41
2022-09-15T16:05:44.215Z,24.34
2022-09-15T16:08:24.060Z,24.24
2022-09-15T16:10:54.973Z,24.14
2022-09-15T16:13:22.738Z,24.09
2022-09-15T16:15:53.238Z,23.99
2022-09-15T16:18:23.129Z,23.93
2022-09-15T16:20:50.377Z,23.84
2022-09-15T16:23:20.349Z,23.76
2022-09-15T16:26:08.116Z,23.66
2022-09-15T16:28:35.083Z,23.61
2022-09-15T16:31:03.059Z,23.57
2022-09-15T16:33:33.411Z,23.56
2022-09-15T16:36:09.370Z,23.55
2022-09-15T16:38:37.413Z,23.56
2022-09-15T16:41:13.286Z,23.57
2022-09-15T16:43:44.522Z,23.54
2022-09-15T16:46:13.484Z,23.53
2022-09-15T16:48:44.976Z,23.53
2022-09-15T16:51:34.750Z,23.47
2022-09-15T16:54:04.749Z,23.41
2022-09-15T16:56:52.695Z,23.32
2022-09-15T16:59:20.114Z,23.25
2022-09-15T17:01:47.289Z,23.17
2022-09-15T17:04:19.507Z,23.09
2022-09-15T17:06:47.598Z,23.03
2022-09-15T17:09:16.305Z,22.96
2022-09-15T17:11:43.381Z,22.91
2022-09-15T17:14:24.955Z,22.85
2022-09-15T17:16:53.298Z,22.80
2022-09-15T17:19:21.994Z,22.78
2022-09-15T17:21:53.501Z,22.73
2022-09-15T17:24:20.848Z,22.64
2022-09-15T17:26:51.090Z,22.55
2022-09-15T17:29:19.602Z,22.50
2022-09-15T17:34:29.331Z,22.32
2022-09-15T17:36:57.337Z,22.32
2022-09-15T17:39:25.648Z,22.32
2022-09-15T17:41:54.890Z,22.36
2022-09-15T17:44:22.499Z,22.43
2022-09-15T17:46:49.553Z,22.51
2022-09-15T17:49:16.887Z,22.57
2022-09-15T17:51:45.099Z,22.58
2022-09-15T17:54:12.393Z,22.54
2022-09-15T17:56:39.676Z,22.49
2022-09-15T17:59:07.312Z,22.45
2022-09-15T18:01:34.439Z,22.40
2022-09-15T18:04:02.490Z,22.38
2022-09-15T18:06:29.929Z,22.35
2022-09-15T18:08:57.706Z,22.35
2022-09-15T18:11:27.238Z,22.37
2022-09-15T18:13:55.423Z,22.37
2022-09-15T18:16:22.493Z,22.32
2022-09-15T18:18:53.027Z,22.29
2022-09-15T18:21:27.061Z,22.30
2022-09-15T18:23:56.143Z,22.37
2022-09-15T18:26:29.924Z,22.41
2022-09-15T18:28:58.788Z,22.44
2022-09-15T18:31:26.697Z,22.51
2022-09-15T18:33:54.926Z,22.53
2022-09-15T18:36:26.289Z,22.48
2022-09-15T18:38:53.529Z,22.39
2022-09-15T18:41:23.741Z,22.33
2022-09-15T18:43:57.279Z,22.31
2022-09-15T18:46:24.640Z,22.30
2022-09-15T18:48:52.996Z,22.27
2022-09-15T18:51:50.582Z,22.23
2022-09-15T18:56:59.276Z,22.10
2022-09-15T18:59:34.830Z,22.06
2022-09-15T19:04:34.173Z,21.95
2022-09-15T19:07:03.191Z,21.91
2022-09-15T19:09:30.862Z,21.87
2022-09-15T19:12:00.565Z,21.81
2022-09-15T19:14:31.517Z,21.77
2022-09-15T19:17:08.569Z,21.72
2022-09-15T19:19:36.027Z,21.69
2022-09-15T19:22:03.522Z,21.65
2022-09-15T19:24:33.902Z,21.61
2022-09-15T19:27:02.066Z,21.56
2022-09-15T19:29:34.875Z,21.58
2022-09-15T19:32:06.461Z,21.56
2022-09-15T19:34:35.063Z,21.55
2022-09-15T19:37:02.881Z,21.54
2022-09-15T19:39:32.573Z,21.52
2022-09-15T19:42:00.193Z,21.50
2022-09-15T19:44:27.624Z,21.46
2022-09-15T19:47:03.969Z,21.37
2022-09-15T19:49:31.274Z,21.32
2022-09-15T19:51:58.351Z,21.26
2022-09-15T19:54:28.852Z,21.21
2022-09-15T19:56:59.430Z,21.17
2022-09-15T19:59:32.281Z,21.17
2022-09-15T20:02:01.917Z,21.17
2022-09-15T20:04:30.435Z,21.17
2022-09-15T20:06:57.489Z,21.19
2022-09-15T20:09:27.573Z,21.19
2022-09-15T20:11:57.200Z,21.20
2022-09-15T20:14:26.364Z,21.20
2022-09-15T20:19:38.500Z,21.17
2022-09-15T20:22:10.794Z,21.18
2022-09-15T20:24:40.797Z,21.18
2022-09-15T20:27:10.248Z,21.13
2022-09-15T20:29:37.795Z,21.09
2022-09-15T20:32:04.939Z,21.03
2022-09-15T20:34:34.594Z,20.98
2022-09-15T20:37:03.076Z,20.96
2022-09-15T20:39:30.439Z,20.94
2022-09-15T20:42:00.830Z,20.94
2022-09-15T20:44:41.220Z,20.90
2022-09-15T20:47:09.678Z,20.90
2022-09-15T20:50:05.856Z,20.84
2022-09-15T20:52:37.592Z,20.79
2022-09-15T20:55:06.546Z,20.68
2022-09-15T20:57:33.816Z,20.61
2022-09-15T21:00:00.946Z,20.54
2022-09-15T21:02:30.797Z,20.53
2022-09-15T21:04:58.160Z,20.53
2022-09-15T21:07:25.327Z,20.52
2022-09-15T21:09:52.341Z,20.52
2022-09-15T21:12:19.667Z,20.53
2022-09-15T21:14:46.812Z,20.55
2022-09-15T21:17:25.014Z,20.55
2022-09-15T21:19:54.116Z,20.55
2022-09-15T21:22:21.074Z,20.54
2022-09-15T21:24:48.127Z,20.49
2022-09-15T21:27:27.424Z,20.48
2022-09-15T21:29:54.825Z,20.44
2022-09-15T21:32:22.208Z,20.44
2022-09-15T21:34:49.145Z,20.37
2022-09-15T21:37:16.076Z,20.35
2022-09-15T21:39:43.251Z,20.33
2022-09-15T21:42:14.050Z,20.32
2022-09-15T21:44:41.005Z,20.32
2022-09-15T21:47:08.540Z,20.32
2022-09-15T21:49:35.546Z,20.34
2022-09-15T21:52:03.123Z,20.35
2022-09-15T21:54:31.568Z,20.35
2022-09-15T21:56:58.534Z,20.36
2022-09-15T21:59:25.523Z,20.33
2022-09-15T22:01:54.412Z,20.25
2022-09-15T22:04:21.499Z,20.14
2022-09-15T22:06:50.245Z,20.03
2022-09-15T22:09:21.467Z,19.99
2022-09-15T22:11:49.401Z,19.99
2022-09-15T22:14:17.224Z,20.01
2022-09-15T22:16:44.821Z,20.05
2022-09-15T22:19:12.174Z,20.10
2022-09-15T22:21:42.062Z,20.13
2022-09-15T22:24:13.692Z,20.19
2022-09-15T22:26:42.735Z,20.21
2022-09-15T22:29:10.452Z,20.20
2022-09-15T22:31:38.007Z,20.21
2022-09-15T22:34:05.250Z,20.20
2022-09-15T22:36:34.379Z,20.20
2022-09-15T22:39:05.685Z,20.18
2022-09-15T22:41:39.935Z,20.18
2022-09-15T22:44:16.516Z,20.14
2022-09-15T22:46:43.509Z,20.08
2022-09-15T22:49:11.409Z,20.08
2022-09-15T22:51:38.479Z,20.07
2022-09-15T22:54:05.538Z,20.06
2022-09-15T22:56:33.442Z,20.03
2022-09-15T22:59:00.805Z,19.93
2022-09-15T23:01:30.106Z,19.87
2022-09-15T23:04:00.341Z,19.81
2022-09-15T23:06:30.779Z,19.80
2022-09-15T23:09:00.330Z,19.79
2022-09-15T23:11:29.398Z,19.77
2022-09-15T23:13:56.898Z,19.76
2022-09-15T23:16:25.462Z,19.74
2022-09-15T23:18:55.349Z,19.64
2022-09-15T23:21:22.420Z,19.56
2022-09-15T23:23:49.777Z,19.48
2022-09-15T23:26:18.945Z,19.42
2022-09-15T23:28:46.365Z,19.35
2022-09-15T23:31:14.087Z,19.35
2022-09-15T23:33:42.132Z,19.39
2022-09-15T23:36:15.688Z,19.48
2022-09-15T23:38:45.209Z,19.56
2022-09-15T23:41:13.140Z,19.67
2022-09-15T23:43:40.372Z,19.71
2022-09-15T23:46:08.213Z,19.76
2022-09-15T23:48:35.546Z,19.77
2022-09-15T23:51:02.831Z,19.79
2022-09-15T23:53:30.185Z,19.79
2022-09-15T23:55:57.135Z,19.76
2022-09-15T23:58:24.278Z,19.70
